Wetterdaten: aktuell Dienstag, 12.12.2017 22:54
Datum Zeit Temp Htte Temp 10 cm Temp. Terr FeuchteHtte Luftdruck Niederschlag Wind Richtung Richtung Sonnenschein Helligkeit T Niederschl Taupunkt Windchill
12.12.2017 22:54 -1,2 C -1,2 C -1,2 C 77 % 1017 hPa 0,0 l/m 0,0 km/h (0 Bft) S-SW 200 0 min 0 lux 0 min -4,7 C -1,2 C
12.12.2017 21:54 -0,3 C -2,0 C -0,8 C 75 % 1016 hPa 0,0 l/m 0,0 km/h (0 Bft) S-SW 200 0 min 0 lux 0 min -4,2 C -0,3 C
12.12.2017 20:54 1,1 C -1,0 C 0,5 C 74 % 1016 hPa 0,0 l/m 0,0 km/h (0 Bft) S-SW 200 0 min 0 lux 0 min -3,0 C 1,1 C
12.12.2017 19:54 2,1 C 0,7 C 1,5 C 74 % 1015 hPa 0,0 l/m 0,6 km/h (0 Bft) S-SW 205 0 min 0 lux 0 min -2,0 C 2,1 C
12.12.2017 18:54 2,5 C 1,8 C 2,2 C 74 % 1014 hPa 0,0 l/m 4,6 km/h (1 Bft) SW22.5 230 0 min 0 lux 0 min -1,7 C 1,4 C
12.12.2017 17:54 2,7 C 1,7 C 2,3 C 73 % 1013 hPa 0,4 l/m 0,2 km/h (0 Bft) SW22.5 215 0 min 0 lux 5 min -1,6 C 2,7 C
12.12.2017 16:54 3,5 C 1,5 C 2,8 C 70 % 1013 hPa 0,0 l/m 5,1 km/h (1 Bft) S-SW45 205 0 min 0 lux 0 min -1,4 C 2,3 C
12.12.2017 15:54 3,9 C 2,5 C 3,5 C 67 % 1012 hPa 0,0 l/m 0,6 km/h (0 Bft) W45 260 0 min 466 lux 0 min -1,7 C 3,9 C
12.12.2017 14:54 4,2 C 3,0 C 3,7 C 66 % 1011 hPa 0,0 l/m 1,9 km/h (1 Bft) S-SW45 200 0 min 2,13 klux 0 min -1,6 C 4,2 C
12.12.2017 13:54 4,4 C 3,5 C 4,4 C 65 % 1010 hPa 0,0 l/m 9,1 km/h (2 Bft) SW45 230 15 min 8,82 klux 0 min -1,6 C 2,2 C
12.12.2017 12:54 3,8 C 3,4 C 3,6 C 67 % 1009 hPa 0,0 l/m 6,8 km/h (2 Bft) S-SW67.5 205 0 min 14,7 klux 0 min -1,8 C 2,1 C
12.12.2017 11:54 3,5 C 3,1 C 3,2 C 67 % 1008 hPa 0,0 l/m 7,3 km/h (2 Bft) SW67.5 220 10 min 14,4 klux 0 min -2,0 C 1,6 C
12.12.2017 10:54 3,2 C 2,5 C 3,0 C 72 % 1007 hPa 0,0 l/m 13,6 km/h (3 Bft) SW67.5 215 5 min 7,86 klux 0 min -1,3 C -0,2 C
12.12.2017 09:54 2,6 C 2,1 C 2,3 C 76 % 1006 hPa 0,0 l/m 15,7 km/h (3 Bft) SW67.5 215 0 min 5,82 klux 0 min -1,2 C -1,3 C
12.12.2017 08:54 2,4 C 1,7 C 2,1 C 77 % 1004 hPa 0,0 l/m 17,3 km/h (3 Bft) S67.5 180 0 min 1,80 klux 0 min -1,2 C -1,8 C
12.12.2017 07:54 2,3 C 1,4 C 1,9 C 76 % 1002 hPa 0,0 l/m 19,0 km/h (3 Bft) W-SW67.5 250 0 min 0 lux 0 min -1,5 C -2,2 C
12.12.2017 06:54 2,8 C 1,2 C 1,7 C 75 % 1000 hPa 0,0 l/m 12,6 km/h (3 Bft) SW67.5 220 0 min 0 lux 0 min -1,2 C -0,5 C
12.12.2017 05:54 4,1 C 2,1 C 2,9 C 75 % 997 hPa 0,0 l/m 18,1 km/h (3 Bft) S-SW22.5 195 0 min 0 lux 0 min 0,1 C 0,2 C
12.12.2017 04:54 5,3 C 3,5 C 4,6 C 70 % 995 hPa 0,0 l/m 13,1 km/h (3 Bft) SW67.5 220 0 min 0 lux 0 min 0,3 C 2,4 C
12.12.2017 03:54 5,4 C 3,9 C 4,7 C 81 % 993 hPa 0,0 l/m 2,4 km/h (1 Bft) S-SW22.5 205 0 min 0 lux 0 min 2,4 C 5,4 C
12.12.2017 02:54 5,7 C 4,3 C 5,0 C 82 % 992 hPa 0,4 l/m 16,9 km/h (3 Bft) SW67.5 215 0 min 0 lux 5 min 2,9 C 2,3 C
12.12.2017 01:54 6,0 C 3,9 C 5,2 C 87 % 991 hPa 0,0 l/m 1,6 km/h (1 Bft) S-SW22.5 205 0 min 0 lux 0 min 4,0 C 6,0 C
12.12.2017 00:54 5,7 C 3,9 C 5,3 C 92 % 990 hPa 0,0 l/m 9,6 km/h (2 Bft) S45 180 0 min 0 lux 0 min 4,5 C 3,6 C
12.12.2017 00:04 5,6 C 3,8 C 5,1 C 93 % 989 hPa 0,0 l/m 8,5 km/h (2 Bft) S45 175 0 min 0 lux 0 min 4,6 C 3,7 C
_ Min-Zeit 22:54 21:59 22:29 14:19 00:04 - 01:59 - - - - - 22:54 08:09
Minimum _ -1,2 C -2,1 C -1,2 C 64 % 989 hPa - 0,0 km/h (0 Bft) - - - - - -4,7 C -3,7 C
_ Max-Zeit 01:24 13:29 01:14 00:04 22:09 02:09 06:24 - - 10:24 13:29 02:09 00:04 01:44
Maximum _ 6,0 C 4,9 C 5,5 C 93 % 1017 hPa 0,4 l/m 33,8 km/h
S-SW (5 Bft)
- - 5 min 46,3 klux 5 min 4,6 C 6,0 C
Durchschnitt _ 3,4 C 2,2 C 2,9 C 75 % 1006 hPa #0,7 l/m 9,5 km/h (2 Bft) S-SW - #30 min. 3,18 klux #10 min. -0,7 C 1,4 C